KADH

Details ICAO KADH
Name ADA MUNI
Region United States
Timezone America/Chicago (UTC-6.0)
Plans Departing 3
Arriving 1
Stats Elevation 1,016 ft / 310 m (AMSL)
Location 34.804135° -96.670930°
Runways 2
Magnetic Variation 3.192° E
Sunrise 2017-12-17 13:29:36 UTC / 2017-12-17 07:29:36 Local
Sunset 2017-12-17 23:19:00 UTC / 2017-12-17 17:19:00 Local
Advertisement - Login to hide

Runways

ID Width Length Bearing (true) Bearing (mag) Surface Threshold Offset Overrun Length
13 50 ft / 15 m 3,104 ft / 946 m 135.24° 132.05° Asphalt 0 ft / 0 m 0 ft / 0 m
17 100 ft / 30 m 6,219 ft / 1,896 m 179.99° 176.80° Asphalt 0 ft / 0 m 0 ft / 0 m
31 50 ft / 15 m 3,104 ft / 946 m 315.24° 312.05° Asphalt 0 ft / 0 m 0 ft / 0 m
35 100 ft / 30 m 6,219 ft / 1,896 m 359.99° 356.80° Asphalt 100 ft / 30 m 0 ft / 0 m

Map

Weather


0- 5 10 15 20 25 30 35+ Temperature / ° C

Clouds and Precipitation
Forecast for 2017-12-17 06:00 UTC. Updated an hour ago

Ground ~20,000 ft ~40,000 ft Winds

METAR

KADH 170635Z AUTO 16009KT 5SM RA BKN007 BKN010 OVC032 05/05 A3002 RMK AO2

TAF

Not found

Frequencies

Recorded 118.72 MHz AWOS 3
Unicom 122.80 MHz CTAF/UNICOM
Warning: Do not use this data for real-world aviation or navigation. No guarantee of current accuracy is given.